createdAt,value
2017-11-29T00:01:21.985Z,7.50
2017-11-29T00:03:52.162Z,7.73
2017-11-29T00:06:22.125Z,6.87
2017-11-29T00:08:52.244Z,6.40
2017-11-29T00:11:22.300Z,4.57
2017-11-29T00:13:52.379Z,7.97
2017-11-29T00:16:22.348Z,5.40
2017-11-29T00:18:52.411Z,6.73
2017-11-29T00:21:22.457Z,10.60
2017-11-29T00:23:52.459Z,6.53
2017-11-29T00:26:22.622Z,6.80
2017-11-29T00:28:52.487Z,6.80
2017-11-29T00:31:22.514Z,6.80
2017-11-29T00:33:52.680Z,7.67
2017-11-29T00:36:22.735Z,10.00
2017-11-29T00:38:52.782Z,7.10
2017-11-29T00:41:22.686Z,8.37
2017-11-29T00:43:52.810Z,10.43
2017-11-29T00:46:22.787Z,7.13
2017-11-29T00:48:52.873Z,8.60
2017-11-29T01:11:03.505Z,10.43
2017-11-29T01:13:33.662Z,8.13
2017-11-29T01:32:56.531Z,9.77
2017-11-29T01:35:26.574Z,9.97
2017-11-29T01:37:56.593Z,9.77
2017-11-29T01:40:26.747Z,10.00
2017-11-29T01:42:56.734Z,10.23
2017-11-29T01:45:26.759Z,10.40
2017-11-29T01:47:56.773Z,9.50
2017-11-29T01:50:26.686Z,9.70
2017-11-29T01:52:56.302Z,9.97
2017-11-29T01:55:25.888Z,10.23
2017-11-29T01:57:55.557Z,9.83
2017-11-29T02:00:25.253Z,9.37
2017-11-29T02:02:54.858Z,9.67
2017-11-29T02:05:24.621Z,9.10
2017-11-29T02:07:54.783Z,11.37
2017-11-29T02:10:24.724Z,9.90
2017-11-29T02:12:54.830Z,10.17
2017-11-29T02:15:24.868Z,12.27
2017-11-29T02:17:54.811Z,11.57
2017-11-29T02:20:24.933Z,9.70
2017-11-29T02:22:54.855Z,9.33
2017-11-29T02:25:24.963Z,8.30
2017-11-29T02:27:54.914Z,8.63
2017-11-29T02:30:25.000Z,9.00
2017-11-29T02:32:55.105Z,8.00
2017-11-29T02:35:25.120Z,8.47
2017-11-29T02:37:55.139Z,15.13
2017-11-29T02:40:31.098Z,7.37
2017-11-29T02:43:00.673Z,7.47
2017-11-29T02:45:30.226Z,7.67
2017-11-29T02:48:00.315Z,7.50
2017-11-29T02:50:30.344Z,6.83
2017-11-29T02:53:00.350Z,7.70
2017-11-29T02:55:30.403Z,7.13
2017-11-29T02:58:00.387Z,7.23
2017-11-29T03:00:30.508Z,7.43
2017-11-29T03:03:00.510Z,7.23
2017-11-29T03:05:30.461Z,6.70
2017-11-29T03:08:00.535Z,7.07
2017-11-29T03:10:30.582Z,7.07
2017-11-29T03:13:00.591Z,6.60
2017-11-29T03:15:30.757Z,7.40
2017-11-29T03:18:00.718Z,6.77
2017-11-29T03:20:30.651Z,6.80
2017-11-29T03:23:00.753Z,6.90
2017-11-29T03:25:30.744Z,7.17
2017-11-29T03:28:00.842Z,7.10
2017-11-29T03:30:30.876Z,7.40
2017-11-29T03:33:00.948Z,7.03
2017-11-29T03:35:30.864Z,7.23
2017-11-29T03:38:00.979Z,7.10
2017-11-29T03:40:30.924Z,7.80
2017-11-29T03:43:00.946Z,8.27
2017-11-29T03:45:31.039Z,8.10
2017-11-29T03:48:01.043Z,8.90
2017-11-29T03:50:31.166Z,8.63
2017-11-29T03:53:01.289Z,7.77
2017-11-29T03:55:31.336Z,8.10
2017-11-29T03:58:01.192Z,8.97
2017-11-29T04:00:31.257Z,8.77
2017-11-29T04:03:01.361Z,8.73
2017-11-29T04:05:31.331Z,8.77
2017-11-29T04:08:01.382Z,8.27
2017-11-29T04:10:31.444Z,7.17
2017-11-29T04:13:01.549Z,6.97
2017-11-29T04:15:31.538Z,6.90
2017-11-29T04:18:01.557Z,7.10
2017-11-29T04:20:31.569Z,7.73
2017-11-29T04:23:01.615Z,7.67
2017-11-29T04:25:31.821Z,8.17
2017-11-29T04:28:01.800Z,9.00
2017-11-29T04:30:31.747Z,7.23
2017-11-29T04:33:01.802Z,7.30
2017-11-29T04:35:31.883Z,8.27
2017-11-29T04:38:01.831Z,8.60
2017-11-29T04:40:31.958Z,10.43
2017-11-29T04:43:01.942Z,9.13
2017-11-29T04:45:32.026Z,10.97
2017-11-29T04:48:01.956Z,8.77
2017-11-29T04:50:32.060Z,8.93
2017-11-29T04:53:02.130Z,9.10
2017-11-29T04:55:32.164Z,8.87
2017-11-29T04:58:02.400Z,8.53
2017-11-29T05:00:32.241Z,8.27
2017-11-29T05:03:02.156Z,8.83
2017-11-29T05:05:32.400Z,9.83
2017-11-29T05:08:02.306Z,11.20
2017-11-29T05:10:32.312Z,9.70
2017-11-29T05:13:02.362Z,7.67
2017-11-29T05:15:32.387Z,8.00
2017-11-29T05:18:02.373Z,8.37
2017-11-29T05:20:32.526Z,8.83
2017-11-29T05:23:02.743Z,8.23
2017-11-29T05:25:32.533Z,8.20
2017-11-29T05:28:02.550Z,8.27
2017-11-29T05:30:32.620Z,9.90
2017-11-29T05:33:02.707Z,9.17
2017-11-29T05:35:32.764Z,8.90
2017-11-29T05:38:02.705Z,8.83
2017-11-29T05:40:33.008Z,9.87
2017-11-29T05:43:02.804Z,8.53
2017-11-29T05:45:32.860Z,9.33
2017-11-29T05:48:03.020Z,10.33
2017-11-29T05:50:33.028Z,10.07
2017-11-29T05:53:03.060Z,10.10
2017-11-29T05:55:33.072Z,11.40
2017-11-29T05:58:03.191Z,12.43
2017-11-29T06:00:33.175Z,12.30
2017-11-29T06:03:03.415Z,11.27
2017-11-29T06:05:33.253Z,10.67
2017-11-29T06:08:03.366Z,11.83
2017-11-29T06:10:33.335Z,13.77
2017-11-29T06:13:03.409Z,12.07
2017-11-29T06:15:33.422Z,13.60
2017-11-29T06:18:03.407Z,14.50
2017-11-29T06:20:33.454Z,13.77
2017-11-29T06:23:03.647Z,12.70
2017-11-29T06:25:33.467Z,12.33
2017-11-29T06:28:03.552Z,14.00
2017-11-29T06:30:33.624Z,13.93
2017-11-29T06:33:03.640Z,13.67
2017-11-29T06:35:33.658Z,15.93
2017-11-29T06:38:03.707Z,17.13
2017-11-29T06:40:33.877Z,13.90
2017-11-29T06:43:03.777Z,15.77
2017-11-29T06:45:33.729Z,14.93
2017-11-29T06:48:03.780Z,15.80
2017-11-29T06:50:33.943Z,20.73
2017-11-29T06:53:03.883Z,16.53
2017-11-29T06:55:34.361Z,17.17
2017-11-29T06:58:03.921Z,15.47
2017-11-29T07:00:33.912Z,17.77
2017-11-29T07:03:03.976Z,17.13
2017-11-29T07:05:34.048Z,18.30
2017-11-29T07:08:03.996Z,16.50
2017-11-29T07:10:33.976Z,16.90
2017-11-29T07:13:04.225Z,17.10
2017-11-29T07:15:34.229Z,19.83
2017-11-29T07:18:04.069Z,19.60
2017-11-29T07:20:34.180Z,18.83
2017-11-29T07:23:04.206Z,18.07
2017-11-29T07:25:34.259Z,18.77
2017-11-29T07:28:04.349Z,17.73
2017-11-29T07:30:34.267Z,20.13
2017-11-29T07:33:04.427Z,19.10
2017-11-29T07:35:34.422Z,21.43
2017-11-29T07:38:04.413Z,23.43
2017-11-29T07:40:34.393Z,18.70
2017-11-29T07:43:04.459Z,18.27
2017-11-29T07:45:34.629Z,18.33
2017-11-29T07:48:04.834Z,18.83
2017-11-29T07:50:34.499Z,19.43
2017-11-29T07:53:04.566Z,19.00
2017-11-29T07:55:34.677Z,17.93
2017-11-29T07:58:04.667Z,20.97
2017-11-29T08:00:34.773Z,17.47
2017-11-29T08:03:04.693Z,19.90
2017-11-29T08:05:34.678Z,14.63
2017-11-29T08:08:04.604Z,13.97
2017-11-29T08:10:34.847Z,15.67
2017-11-29T08:13:04.767Z,15.40
2017-11-29T08:15:35.113Z,17.10
2017-11-29T08:18:04.937Z,14.23
2017-11-29T08:20:34.935Z,14.57
2017-11-29T08:23:04.855Z,15.03
2017-11-29T08:25:34.928Z,16.27
2017-11-29T08:28:05.038Z,21.23
2017-11-29T08:30:34.857Z,16.77
2017-11-29T08:33:04.811Z,16.77
2017-11-29T08:35:35.008Z,20.87
2017-11-29T08:38:04.961Z,19.83
2017-11-29T08:40:34.869Z,19.20
2017-11-29T08:43:04.872Z,22.43
2017-11-29T08:45:34.984Z,21.43
2017-11-29T08:48:05.090Z,24.37
2017-11-29T08:50:35.192Z,23.70
2017-11-29T08:53:05.129Z,21.70
2017-11-29T08:55:35.168Z,22.07
2017-11-29T08:58:05.195Z,20.80
2017-11-29T09:00:35.408Z,19.13
2017-11-29T09:03:05.112Z,22.27
2017-11-29T09:05:35.223Z,20.20
2017-11-29T09:08:05.258Z,17.87
2017-11-29T09:10:35.271Z,18.93
2017-11-29T09:13:05.328Z,22.13
2017-11-29T09:15:35.422Z,21.97
2017-11-29T09:18:05.416Z,18.00
2017-11-29T09:20:35.480Z,25.63
2017-11-29T09:23:05.428Z,22.07
2017-11-29T09:25:35.583Z,18.43
2017-11-29T09:28:05.599Z,15.03
2017-11-29T09:30:35.631Z,13.43
2017-11-29T09:33:05.715Z,10.17
2017-11-29T09:35:35.702Z,10.20
2017-11-29T09:38:05.751Z,9.77
2017-11-29T09:40:35.796Z,10.40
2017-11-29T09:43:05.894Z,11.63
2017-11-29T09:45:36.110Z,10.47
2017-11-29T09:48:06.051Z,15.17
2017-11-29T09:50:35.999Z,11.80
2017-11-29T09:53:06.082Z,9.67
2017-11-29T09:55:35.899Z,11.17
2017-11-29T09:58:05.909Z,8.77
2017-11-29T10:00:36.104Z,10.70
2017-11-29T10:03:05.967Z,9.13
2017-11-29T10:05:36.169Z,10.17
2017-11-29T10:08:06.091Z,12.03
2017-11-29T10:10:36.100Z,9.60
2017-11-29T10:13:06.121Z,11.43
2017-11-29T10:15:36.106Z,10.03
2017-11-29T10:18:06.119Z,11.87
2017-11-29T10:20:36.197Z,14.97
2017-11-29T10:23:06.300Z,16.90
2017-11-29T10:25:36.318Z,21.03
2017-11-29T10:28:06.464Z,12.03
2017-11-29T10:30:36.332Z,13.00
2017-11-29T10:33:06.389Z,15.80
2017-11-29T10:35:36.297Z,10.83
2017-11-29T10:38:06.422Z,14.20
2017-11-29T10:40:36.425Z,12.80
2017-11-29T10:43:06.448Z,12.17
2017-11-29T10:45:36.565Z,13.10
2017-11-29T10:48:06.577Z,11.17
2017-11-29T10:50:36.629Z,12.23
2017-11-29T10:53:06.547Z,12.93
2017-11-29T10:55:36.571Z,13.43
2017-11-29T10:58:06.653Z,12.87
2017-11-29T11:00:36.666Z,11.07
2017-11-29T11:03:06.605Z,12.93
2017-11-29T11:05:36.647Z,14.63
2017-11-29T11:08:06.824Z,11.80
2017-11-29T11:10:36.835Z,12.73
2017-11-29T11:13:06.856Z,10.37
2017-11-29T11:15:36.887Z,11.90
2017-11-29T11:18:06.926Z,9.53
2017-11-29T11:20:36.912Z,10.57
2017-11-29T11:23:06.968Z,11.00
2017-11-29T11:25:37.075Z,12.80
2017-11-29T11:28:07.161Z,11.80
2017-11-29T11:30:37.170Z,10.00
2017-11-29T11:33:07.275Z,9.93
2017-11-29T11:35:37.207Z,10.23
2017-11-29T11:38:07.247Z,9.27
2017-11-29T11:40:37.418Z,11.37
2017-11-29T11:43:07.456Z,9.43
2017-11-29T11:45:37.592Z,11.13
2017-11-29T11:48:08.648Z,8.23
2017-11-29T11:50:39.544Z,11.07
2017-11-29T11:53:09.093Z,11.90
2017-11-29T11:55:38.667Z,12.20
2017-11-29T11:58:08.286Z,9.60
2017-11-29T12:00:38.133Z,9.43
2017-11-29T12:03:08.169Z,12.93
2017-11-29T12:05:38.217Z,12.97
2017-11-29T12:08:08.480Z,11.90
2017-11-29T12:10:38.284Z,9.20
2017-11-29T12:13:08.626Z,9.07
2017-11-29T12:15:38.345Z,11.33
2017-11-29T12:18:08.043Z,12.33
2017-11-29T12:20:41.855Z,9.63
2017-11-29T12:23:12.448Z,7.20
2017-11-29T12:25:44.163Z,8.53
2017-11-29T12:28:15.384Z,13.30
2017-11-29T12:30:45.883Z,11.10
2017-11-29T12:33:15.440Z,8.63
2017-11-29T12:35:45.487Z,12.47
2017-11-29T12:38:15.497Z,12.97
2017-11-29T12:40:45.423Z,11.77
2017-11-29T12:43:15.548Z,19.17
2017-11-29T12:45:45.585Z,9.23
2017-11-29T12:48:22.365Z,10.73
2017-11-29T12:50:57.940Z,11.33
2017-11-29T12:53:30.778Z,9.97
2017-11-29T12:56:00.636Z,11.43
2017-11-29T12:58:30.532Z,10.00
2017-11-29T13:01:00.603Z,7.63
2017-11-29T13:03:30.658Z,10.47
2017-11-29T13:06:00.770Z,11.10
2017-11-29T13:08:30.928Z,8.47
2017-11-29T13:11:00.847Z,8.90
2017-11-29T13:13:30.988Z,7.37
2017-11-29T13:16:01.086Z,8.80
2017-11-29T13:18:30.962Z,8.13
2017-11-29T13:21:01.079Z,10.50
2017-11-29T13:23:31.095Z,7.73
2017-11-29T13:26:01.176Z,7.87
2017-11-29T13:28:31.099Z,6.70
2017-11-29T13:31:01.110Z,10.67
2017-11-29T13:33:31.223Z,12.20
2017-11-29T13:36:01.122Z,5.97
2017-11-29T13:38:31.342Z,5.63
2017-11-29T13:41:01.275Z,6.97
2017-11-29T13:43:31.325Z,7.47
2017-11-29T13:46:01.372Z,12.33
2017-11-29T13:48:31.376Z,13.70
2017-11-29T13:51:01.407Z,10.10
2017-11-29T13:53:31.428Z,10.37
2017-11-29T13:56:01.409Z,9.77
2017-11-29T13:58:31.555Z,9.73
2017-11-29T14:03:36.658Z,10.00
2017-11-29T14:06:06.270Z,6.60
2017-11-29T14:08:35.974Z,8.97
2017-11-29T14:11:05.790Z,7.37
2017-11-29T14:13:35.695Z,7.03
2017-11-29T14:16:05.315Z,5.60
2017-11-29T14:18:34.880Z,8.20
2017-11-29T14:21:04.415Z,12.27
2017-11-29T14:23:33.956Z,14.33
2017-11-29T14:26:03.824Z,13.67
2017-11-29T14:28:33.784Z,13.87
2017-11-29T14:31:03.831Z,12.40
2017-11-29T14:33:34.000Z,18.30
2017-11-29T14:36:03.978Z,12.83
2017-11-29T14:38:34.015Z,10.20
2017-11-29T14:41:05.037Z,13.33
2017-11-29T14:43:34.767Z,10.17
2017-11-29T14:46:04.338Z,14.73
2017-11-29T14:48:34.162Z,17.67
2017-11-29T14:51:04.361Z,13.97
2017-11-29T14:53:34.257Z,12.17
2017-11-29T14:56:04.332Z,10.50
2017-11-29T14:58:34.459Z,11.60
2017-11-29T15:01:04.542Z,10.53
2017-11-29T15:03:34.658Z,9.97
2017-11-29T15:06:04.593Z,11.53
2017-11-29T15:08:34.457Z,13.23
2017-11-29T15:11:04.611Z,9.60
2017-11-29T15:13:34.496Z,8.60
2017-11-29T15:16:04.614Z,12.93
2017-11-29T15:18:34.807Z,14.10
2017-11-29T15:21:04.682Z,15.00
2017-11-29T15:23:34.793Z,14.37
2017-11-29T15:26:04.816Z,18.90
2017-11-29T15:28:34.831Z,18.97
2017-11-29T15:31:04.836Z,13.47
2017-11-29T15:33:34.860Z,17.03
2017-11-29T15:36:04.979Z,13.23
2017-11-29T15:38:35.004Z,16.67
2017-11-29T15:41:04.976Z,13.37
2017-11-29T15:43:35.023Z,17.77
2017-11-29T15:46:05.148Z,14.33
2017-11-29T15:48:35.047Z,13.27
2017-11-29T15:51:05.172Z,11.27
2017-11-29T15:53:35.210Z,13.70
2017-11-29T15:56:05.272Z,12.27
2017-11-29T15:58:35.328Z,11.93
2017-11-29T16:01:05.379Z,14.80
2017-11-29T16:03:35.368Z,17.00
2017-11-29T16:06:05.460Z,14.47
2017-11-29T16:08:35.495Z,14.30
2017-11-29T16:11:05.531Z,13.47
2017-11-29T16:13:35.590Z,11.53
2017-11-29T16:16:05.600Z,12.93
2017-11-29T16:18:36.095Z,10.93
2017-11-29T16:21:06.072Z,16.17
2017-11-29T16:23:36.115Z,10.50
2017-11-29T16:26:06.092Z,15.30
2017-11-29T16:28:36.204Z,11.80
2017-11-29T16:31:06.291Z,13.87
2017-11-29T16:33:36.406Z,12.93
2017-11-29T16:36:06.484Z,15.13
2017-11-29T16:38:36.440Z,20.97
2017-11-29T16:41:06.387Z,16.17
2017-11-29T16:43:36.584Z,13.50
2017-11-29T16:46:06.434Z,14.73
2017-11-29T16:48:36.544Z,17.93
2017-11-29T16:51:06.609Z,18.57
2017-11-29T16:53:36.629Z,23.80
2017-11-29T16:56:06.743Z,15.60
2017-11-29T16:58:37.968Z,13.73
2017-11-29T17:01:11.537Z,14.77
2017-11-29T17:03:41.384Z,15.17
2017-11-29T17:06:11.448Z,13.53
2017-11-29T17:08:41.515Z,12.97
2017-11-29T17:11:11.576Z,12.87
2017-11-29T17:13:43.044Z,11.83
2017-11-29T17:16:12.791Z,15.37
2017-11-29T17:18:42.967Z,15.07
2017-11-29T17:21:13.660Z,13.97
2017-11-29T17:23:43.297Z,13.10
2017-11-29T17:26:12.916Z,12.13
2017-11-29T17:28:42.867Z,7.87
2017-11-29T17:31:12.915Z,13.17
2017-11-29T17:33:43.041Z,14.03
2017-11-29T17:36:13.145Z,10.37
2017-11-29T17:38:43.320Z,13.30
2017-11-29T17:41:13.336Z,10.70
2017-11-29T17:43:44.082Z,11.03
2017-11-29T17:46:14.343Z,11.90
2017-11-29T17:48:44.008Z,10.27
2017-11-29T17:51:14.166Z,11.93
2017-11-29T17:53:44.004Z,9.63
2017-11-29T17:56:14.329Z,8.77
2017-11-29T17:58:43.938Z,11.27
2017-11-29T18:01:14.082Z,9.33
2017-11-29T18:03:43.841Z,12.93
2017-11-29T18:06:15.241Z,10.93
2017-11-29T18:08:46.930Z,12.33
2017-11-29T18:11:16.907Z,15.03
2017-11-29T18:13:47.202Z,9.97
2017-11-29T18:16:17.032Z,11.97
2017-11-29T18:18:48.174Z,13.40
2017-11-29T18:21:19.874Z,12.53
2017-11-29T18:23:49.990Z,18.63
2017-11-29T18:26:20.170Z,14.13
2017-11-29T18:28:51.810Z,12.50
2017-11-29T18:31:22.390Z,14.23
2017-11-29T18:33:52.459Z,11.93
2017-11-29T18:36:23.036Z,13.60
2017-11-29T18:38:54.249Z,16.73
2017-11-29T18:41:27.296Z,12.77
2017-11-29T18:43:59.247Z,11.43
2017-11-29T18:46:30.671Z,13.40
2017-11-29T18:49:03.815Z,13.07
2017-11-29T18:51:35.884Z,13.77
2017-11-29T18:54:07.712Z,12.30
2017-11-29T19:09:39.403Z,18.63
2017-11-29T19:12:11.350Z,23.23
2017-11-29T19:14:43.868Z,23.63
2017-11-29T19:17:15.693Z,15.93
2017-11-29T19:19:47.983Z,13.43
2017-11-29T19:22:19.411Z,11.87
2017-11-29T19:24:51.311Z,18.03
2017-11-29T19:27:24.527Z,17.13
2017-11-29T19:29:59.356Z,13.53
2017-11-29T19:32:31.631Z,17.73
2017-11-29T19:35:04.090Z,16.23
2017-11-29T19:37:36.824Z,14.07
2017-11-29T19:40:09.254Z,18.20
2017-11-29T19:42:41.301Z,15.43
2017-11-29T19:45:12.933Z,14.77
2017-11-29T19:47:44.759Z,11.90
2017-11-29T19:50:17.142Z,13.63
2017-11-29T19:52:48.537Z,15.13
2017-11-29T19:55:20.324Z,12.40
2017-11-29T19:57:52.139Z,19.57
2017-11-29T20:00:23.629Z,25.57
2017-11-29T20:02:55.369Z,13.63
2017-11-29T20:05:26.939Z,18.87
2017-11-29T20:07:59.068Z,15.10
2017-11-29T20:10:30.921Z,27.00
2017-11-29T20:28:27.135Z,14.83
2017-11-29T20:30:58.669Z,18.60
2017-11-29T20:33:30.449Z,17.77
2017-11-29T20:36:03.249Z,17.40
2017-11-29T20:38:35.227Z,17.07
2017-11-29T20:41:08.641Z,18.37
2017-11-29T20:43:42.389Z,16.97
2017-11-29T20:46:14.327Z,14.57
2017-11-29T20:48:45.771Z,15.70
2017-11-29T20:51:17.117Z,17.67
2017-11-29T20:53:48.821Z,29.53
2017-11-29T20:56:21.911Z,24.07
2017-11-29T20:58:54.550Z,25.13
2017-11-29T21:01:26.189Z,15.97
2017-11-29T21:03:58.014Z,22.77
2017-11-29T21:06:29.702Z,15.37
2017-11-29T21:09:02.179Z,14.83
2017-11-29T21:11:33.958Z,17.57
2017-11-29T21:14:06.310Z,17.30
2017-11-29T21:16:37.995Z,18.07
2017-11-29T21:19:09.166Z,18.13
2017-11-29T21:21:40.554Z,27.90
2017-11-29T21:24:13.362Z,15.00
2017-11-29T21:26:45.229Z,17.03
2017-11-29T21:29:18.544Z,25.17
2017-11-29T21:31:50.790Z,16.00
2017-11-29T21:34:21.764Z,19.97
2017-11-29T21:36:53.512Z,17.07
2017-11-29T21:39:25.234Z,25.77
2017-11-29T21:41:56.181Z,18.90
2017-11-29T21:44:27.227Z,19.20
2017-11-29T21:46:58.401Z,18.20
2017-11-29T21:49:31.304Z,19.17
2017-11-29T21:52:02.116Z,24.37
2017-11-29T21:54:33.521Z,18.90
2017-11-29T22:24:14.374Z,31.03
2017-11-29T22:26:44.019Z,23.13
2017-11-29T22:29:13.797Z,25.43
2017-11-29T22:31:43.786Z,20.23
2017-11-29T22:34:13.839Z,17.20
2017-11-29T22:36:43.978Z,27.00
2017-11-29T22:39:14.121Z,33.77
2017-11-29T22:41:44.274Z,23.70
2017-11-29T22:44:14.112Z,28.93
2017-11-29T22:46:44.348Z,24.03
2017-11-29T22:49:14.321Z,20.33
2017-11-29T22:51:44.161Z,26.07
2017-11-29T22:54:14.275Z,22.47
2017-11-29T22:56:44.349Z,21.70
2017-11-29T22:59:14.375Z,20.70
2017-11-29T23:01:44.478Z,22.43
2017-11-29T23:04:14.630Z,23.07
2017-11-29T23:06:44.638Z,21.50
2017-11-29T23:09:14.638Z,25.47
2017-11-29T23:11:44.869Z,23.43
2017-11-29T23:14:14.832Z,21.77
2017-11-29T23:16:44.866Z,30.77
2017-11-29T23:19:14.946Z,21.77
2017-11-29T23:21:44.953Z,23.57
2017-11-29T23:24:15.060Z,22.83
2017-11-29T23:26:45.060Z,22.60
2017-11-29T23:29:15.107Z,21.50
2017-11-29T23:31:45.261Z,21.37
2017-11-29T23:34:15.288Z,23.57
2017-11-29T23:36:45.336Z,22.43
2017-11-29T23:39:15.236Z,22.57
2017-11-29T23:41:45.365Z,19.93
2017-11-29T23:44:15.705Z,22.97
2017-11-29T23:46:45.442Z,25.73
2017-11-29T23:49:15.640Z,20.43
2017-11-29T23:51:45.558Z,22.60
2017-11-29T23:54:15.673Z,22.60
2017-11-29T23:56:45.726Z,21.23
2017-11-29T23:59:15.498Z,22.00
